sensor_id;sensor_type;location;lat;lon;timestamp;temperature;humidity
4637;DHT22;2331;48.806;9.140;2023-02-28T00:00:52;2.20;1.00
4637;DHT22;2331;48.806;9.140;2023-02-28T00:03:20;2.20;1.00
4637;DHT22;2331;48.806;9.140;2023-02-28T00:05:46;2.10;1.00
4637;DHT22;2331;48.806;9.140;2023-02-28T00:08:13;2.10;1.00
4637;DHT22;2331;48.806;9.140;2023-02-28T00:10:40;2.10;1.00
4637;DHT22;2331;48.806;9.140;2023-02-28T00:13:07;2.00;1.00
4637;DHT22;2331;48.806;9.140;2023-02-28T00:15:33;2.10;1.00
4637;DHT22;2331;48.806;9.140;2023-02-28T00:18:01;2.00;1.00
4637;DHT22;2331;48.806;9.140;2023-02-28T00:20:29;2.00;1.00
4637;DHT22;2331;48.806;9.140;2023-02-28T00:22:56;2.00;1.00
4637;DHT22;2331;48.806;9.140;2023-02-28T00:25:24;2.00;1.00
4637;DHT22;2331;48.806;9.140;2023-02-28T00:27:51;1.90;1.00
4637;DHT22;2331;48.806;9.140;2023-02-28T00:30:19;1.90;1.00
4637;DHT22;2331;48.806;9.140;2023-02-28T00:32:47;1.90;1.00
4637;DHT22;2331;48.806;9.140;2023-02-28T00:35:13;1.90;1.00
4637;DHT22;2331;48.806;9.140;2023-02-28T00:37:42;1.80;1.00
4637;DHT22;2331;48.806;9.140;2023-02-28T00:40:11;1.80;1.00
4637;DHT22;2331;48.806;9.140;2023-02-28T00:42:38;1.90;1.00
4637;DHT22;2331;48.806;9.140;2023-02-28T00:45:06;1.90;1.00
4637;DHT22;2331;48.806;9.140;2023-02-28T00:47:33;1.90;1.00
4637;DHT22;2331;48.806;9.140;2023-02-28T00:50:00;1.80;1.00
4637;DHT22;2331;48.806;9.140;2023-02-28T00:52:27;1.80;1.00
4637;DHT22;2331;48.806;9.140;2023-02-28T00:54:55;1.70;1.00
4637;DHT22;2331;48.806;9.140;2023-02-28T00:57:22;1.70;1.00
4637;DHT22;2331;48.806;9.140;2023-02-28T00:59:48;1.70;1.00
4637;DHT22;2331;48.806;9.140;2023-02-28T01:02:15;1.70;1.00
4637;DHT22;2331;48.806;9.140;2023-02-28T01:04:43;1.70;1.00
4637;DHT22;2331;48.806;9.140;2023-02-28T01:07:09;1.60;1.00
4637;DHT22;2331;48.806;9.140;2023-02-28T01:09:36;1.60;1.00
4637;DHT22;2331;48.806;9.140;2023-02-28T01:12:05;1.60;1.00
4637;DHT22;2331;48.806;9.140;2023-02-28T01:14:33;1.60;1.00
4637;DHT22;2331;48.806;9.140;2023-02-28T01:17:00;1.60;1.00
4637;DHT22;2331;48.806;9.140;2023-02-28T01:19:27;1.60;1.00
4637;DHT22;2331;48.806;9.140;2023-02-28T01:21:53;1.60;1.00
4637;DHT22;2331;48.806;9.140;2023-02-28T01:24:20;1.60;1.00
4637;DHT22;2331;48.806;9.140;2023-02-28T01:26:47;1.60;1.00
4637;DHT22;2331;48.806;9.140;2023-02-28T01:29:15;1.60;1.00
4637;DHT22;2331;48.806;9.140;2023-02-28T01:31:41;1.60;1.00
4637;DHT22;2331;48.806;9.140;2023-02-28T01:34:08;1.60;1.00
4637;DHT22;2331;48.806;9.140;2023-02-28T01:36:35;1.60;1.00
4637;DHT22;2331;48.806;9.140;2023-02-28T01:39:02;1.60;1.00
4637;DHT22;2331;48.806;9.140;2023-02-28T01:41:30;1.60;1.00
4637;DHT22;2331;48.806;9.140;2023-02-28T01:44:00;1.50;1.00
4637;DHT22;2331;48.806;9.140;2023-02-28T01:46:33;1.40;1.00
4637;DHT22;2331;48.806;9.140;2023-02-28T01:49:05;1.40;1.00
4637;DHT22;2331;48.806;9.140;2023-02-28T01:51:37;1.40;1.00
4637;DHT22;2331;48.806;9.140;2023-02-28T01:54:07;1.50;1.00
4637;DHT22;2331;48.806;9.140;2023-02-28T01:56:42;1.40;1.00
4637;DHT22;2331;48.806;9.140;2023-02-28T01:59:11;1.50;1.00
4637;DHT22;2331;48.806;9.140;2023-02-28T02:01:40;1.50;1.00
4637;DHT22;2331;48.806;9.140;2023-02-28T02:04:06;1.50;1.00
4637;DHT22;2331;48.806;9.140;2023-02-28T02:06:37;1.50;1.00
4637;DHT22;2331;48.806;9.140;2023-02-28T02:09:04;1.40;1.00
4637;DHT22;2331;48.806;9.140;2023-02-28T02:11:32;1.40;1.00
4637;DHT22;2331;48.806;9.140;2023-02-28T02:14:21;1.40;1.00
4637;DHT22;2331;48.806;9.140;2023-02-28T02:17:03;1.40;1.00
4637;DHT22;2331;48.806;9.140;2023-02-28T02:19:55;1.40;1.00
4637;DHT22;2331;48.806;9.140;2023-02-28T02:25:41;1.30;1.00
4637;DHT22;2331;48.806;9.140;2023-02-28T02:28:22;1.30;1.00
4637;DHT22;2331;48.806;9.140;2023-02-28T02:31:12;1.30;1.00
4637;DHT22;2331;48.806;9.140;2023-02-28T02:34:17;1.30;1.00
4637;DHT22;2331;48.806;9.140;2023-02-28T02:36:51;1.30;1.00
4637;DHT22;2331;48.806;9.140;2023-02-28T02:39:24;1.30;1.00
4637;DHT22;2331;48.806;9.140;2023-02-28T02:41:58;1.30;1.00
4637;DHT22;2331;48.806;9.140;2023-02-28T02:44:28;1.30;1.00
4637;DHT22;2331;48.806;9.140;2023-02-28T02:47:01;1.30;1.00
4637;DHT22;2331;48.806;9.140;2023-02-28T02:49:34;1.30;1.00
4637;DHT22;2331;48.806;9.140;2023-02-28T02:52:03;1.30;1.00
4637;DHT22;2331;48.806;9.140;2023-02-28T02:54:34;1.30;1.00
4637;DHT22;2331;48.806;9.140;2023-02-28T02:57:05;1.30;1.00
4637;DHT22;2331;48.806;9.140;2023-02-28T02:59:35;1.20;1.00
4637;DHT22;2331;48.806;9.140;2023-02-28T03:02:05;1.20;1.00
4637;DHT22;2331;48.806;9.140;2023-02-28T03:04:39;1.20;1.00
4637;DHT22;2331;48.806;9.140;2023-02-28T03:07:07;1.20;1.00
4637;DHT22;2331;48.806;9.140;2023-02-28T03:09:34;1.20;1.00
4637;DHT22;2331;48.806;9.140;2023-02-28T03:12:03;1.20;1.00
4637;DHT22;2331;48.806;9.140;2023-02-28T03:14:46;1.00;1.00
4637;DHT22;2331;48.806;9.140;2023-02-28T03:17:27;1.10;1.00
4637;DHT22;2331;48.806;9.140;2023-02-28T03:20:07;1.10;1.00
4637;DHT22;2331;48.806;9.140;2023-02-28T03:22:45;1.10;1.00
4637;DHT22;2331;48.806;9.140;2023-02-28T03:25:24;1.20;1.00
4637;DHT22;2331;48.806;9.140;2023-02-28T03:27:59;1.10;1.00
4637;DHT22;2331;48.806;9.140;2023-02-28T03:30:36;1.00;1.00
4637;DHT22;2331;48.806;9.140;2023-02-28T03:33:06;1.10;1.00
4637;DHT22;2331;48.806;9.140;2023-02-28T03:35:38;1.00;1.00
4637;DHT22;2331;48.806;9.140;2023-02-28T03:38:09;1.00;1.00
4637;DHT22;2331;48.806;9.140;2023-02-28T03:40:43;1.00;1.00
4637;DHT22;2331;48.806;9.140;2023-02-28T03:43:13;1.10;1.00
4637;DHT22;2331;48.806;9.140;2023-02-28T03:45:41;1.10;1.00
4637;DHT22;2331;48.806;9.140;2023-02-28T03:48:13;1.00;1.00
4637;DHT22;2331;48.806;9.140;2023-02-28T03:50:44;1.10;1.00
4637;DHT22;2331;48.806;9.140;2023-02-28T03:53:15;1.10;1.00
4637;DHT22;2331;48.806;9.140;2023-02-28T03:55:46;1.00;1.00
4637;DHT22;2331;48.806;9.140;2023-02-28T03:58:21;1.00;1.00
4637;DHT22;2331;48.806;9.140;2023-02-28T04:00:57;1.00;1.00
4637;DHT22;2331;48.806;9.140;2023-02-28T04:03:24;1.20;1.00
4637;DHT22;2331;48.806;9.140;2023-02-28T04:05:53;1.10;1.00
4637;DHT22;2331;48.806;9.140;2023-02-28T04:08:21;1.10;1.00
4637;DHT22;2331;48.806;9.140;2023-02-28T04:10:52;1.10;1.00
4637;DHT22;2331;48.806;9.140;2023-02-28T04:13:20;1.10;1.00
4637;DHT22;2331;48.806;9.140;2023-02-28T04:15:47;1.20;1.00
4637;DHT22;2331;48.806;9.140;2023-02-28T04:18:13;1.10;1.00
4637;DHT22;2331;48.806;9.140;2023-02-28T04:20:40;1.10;1.00
4637;DHT22;2331;48.806;9.140;2023-02-28T04:23:08;1.20;1.00
4637;DHT22;2331;48.806;9.140;2023-02-28T04:25:35;1.20;1.00
4637;DHT22;2331;48.806;9.140;2023-02-28T04:28:01;1.20;1.00
4637;DHT22;2331;48.806;9.140;2023-02-28T04:30:28;1.30;1.00
4637;DHT22;2331;48.806;9.140;2023-02-28T04:32:57;1.20;1.00
4637;DHT22;2331;48.806;9.140;2023-02-28T04:35:24;1.20;1.00
4637;DHT22;2331;48.806;9.140;2023-02-28T04:37:51;1.30;1.00
4637;DHT22;2331;48.806;9.140;2023-02-28T04:40:19;1.20;1.00
4637;DHT22;2331;48.806;9.140;2023-02-28T04:42:45;1.20;1.00
4637;DHT22;2331;48.806;9.140;2023-02-28T04:45:12;1.10;1.00
4637;DHT22;2331;48.806;9.140;2023-02-28T04:47:39;1.20;1.00
4637;DHT22;2331;48.806;9.140;2023-02-28T04:50:06;1.20;1.00
4637;DHT22;2331;48.806;9.140;2023-02-28T04:52:33;1.10;1.00
4637;DHT22;2331;48.806;9.140;2023-02-28T04:54:59;1.20;1.00
4637;DHT22;2331;48.806;9.140;2023-02-28T04:57:28;1.20;1.00
4637;DHT22;2331;48.806;9.140;2023-02-28T04:59:55;1.30;1.00
4637;DHT22;2331;48.806;9.140;2023-02-28T05:02:22;1.20;1.00
4637;DHT22;2331;48.806;9.140;2023-02-28T05:04:49;1.30;1.00
4637;DHT22;2331;48.806;9.140;2023-02-28T05:07:15;1.30;1.00
4637;DHT22;2331;48.806;9.140;2023-02-28T05:09:42;1.40;1.00
4637;DHT22;2331;48.806;9.140;2023-02-28T05:12:09;1.30;1.00
4637;DHT22;2331;48.806;9.140;2023-02-28T05:14:37;1.30;1.00
4637;DHT22;2331;48.806;9.140;2023-02-28T05:17:04;1.30;1.00
4637;DHT22;2331;48.806;9.140;2023-02-28T05:19:30;1.30;1.00
4637;DHT22;2331;48.806;9.140;2023-02-28T05:21:57;1.30;1.00
4637;DHT22;2331;48.806;9.140;2023-02-28T05:24:24;1.30;1.00
4637;DHT22;2331;48.806;9.140;2023-02-28T05:26:53;1.30;1.00
4637;DHT22;2331;48.806;9.140;2023-02-28T05:29:20;1.30;1.00
4637;DHT22;2331;48.806;9.140;2023-02-28T05:31:48;1.30;1.00
4637;DHT22;2331;48.806;9.140;2023-02-28T05:34:14;1.30;1.00
4637;DHT22;2331;48.806;9.140;2023-02-28T05:36:41;1.40;1.00
4637;DHT22;2331;48.806;9.140;2023-02-28T05:39:08;1.40;1.00
4637;DHT22;2331;48.806;9.140;2023-02-28T05:41:41;1.40;1.00
4637;DHT22;2331;48.806;9.140;2023-02-28T05:44:08;1.40;1.00
4637;DHT22;2331;48.806;9.140;2023-02-28T05:46:35;1.30;1.00
4637;DHT22;2331;48.806;9.140;2023-02-28T05:49:03;1.40;1.00
4637;DHT22;2331;48.806;9.140;2023-02-28T05:51:30;1.40;1.00
4637;DHT22;2331;48.806;9.140;2023-02-28T05:53:59;1.50;1.00
4637;DHT22;2331;48.806;9.140;2023-02-28T05:56:26;1.50;1.00
4637;DHT22;2331;48.806;9.140;2023-02-28T05:58:53;1.50;1.00
4637;DHT22;2331;48.806;9.140;2023-02-28T06:01:26;1.50;1.00
4637;DHT22;2331;48.806;9.140;2023-02-28T06:03:58;1.40;1.00
4637;DHT22;2331;48.806;9.140;2023-02-28T06:06:27;1.40;1.00
4637;DHT22;2331;48.806;9.140;2023-02-28T06:08:53;1.50;1.00
4637;DHT22;2331;48.806;9.140;2023-02-28T06:11:20;1.50;1.00
4637;DHT22;2331;48.806;9.140;2023-02-28T06:13:47;1.50;1.00
4637;DHT22;2331;48.806;9.140;2023-02-28T06:16:14;1.60;1.00
4637;DHT22;2331;48.806;9.140;2023-02-28T06:18:40;1.60;1.00
4637;DHT22;2331;48.806;9.140;2023-02-28T06:21:07;1.60;1.00
4637;DHT22;2331;48.806;9.140;2023-02-28T06:23:35;1.60;1.00
4637;DHT22;2331;48.806;9.140;2023-02-28T06:26:02;1.60;1.00
4637;DHT22;2331;48.806;9.140;2023-02-28T06:28:29;1.60;1.00
4637;DHT22;2331;48.806;9.140;2023-02-28T06:30:55;1.60;1.00
4637;DHT22;2331;48.806;9.140;2023-02-28T06:33:22;1.60;1.00
4637;DHT22;2331;48.806;9.140;2023-02-28T06:35:50;1.60;1.00
4637;DHT22;2331;48.806;9.140;2023-02-28T06:38:17;1.60;1.00
4637;DHT22;2331;48.806;9.140;2023-02-28T06:40:53;1.50;1.00
4637;DHT22;2331;48.806;9.140;2023-02-28T06:43:19;1.50;1.00
4637;DHT22;2331;48.806;9.140;2023-02-28T06:45:46;1.60;1.00
4637;DHT22;2331;48.806;9.140;2023-02-28T06:48:13;1.60;1.00
4637;DHT22;2331;48.806;9.140;2023-02-28T06:50:39;1.70;1.00
4637;DHT22;2331;48.806;9.140;2023-02-28T06:53:06;1.60;1.00
4637;DHT22;2331;48.806;9.140;2023-02-28T06:55:33;1.60;1.00
4637;DHT22;2331;48.806;9.140;2023-02-28T06:58:01;1.70;1.00
4637;DHT22;2331;48.806;9.140;2023-02-28T07:00:28;1.70;1.00
4637;DHT22;2331;48.806;9.140;2023-02-28T07:02:54;1.80;1.00
4637;DHT22;2331;48.806;9.140;2023-02-28T07:05:21;1.80;1.00
4637;DHT22;2331;48.806;9.140;2023-02-28T07:07:48;1.80;1.00
4637;DHT22;2331;48.806;9.140;2023-02-28T07:10:14;1.70;1.00
4637;DHT22;2331;48.806;9.140;2023-02-28T07:12:42;1.70;1.00
4637;DHT22;2331;48.806;9.140;2023-02-28T07:15:11;1.70;1.00
4637;DHT22;2331;48.806;9.140;2023-02-28T07:17:38;1.70;1.00
4637;DHT22;2331;48.806;9.140;2023-02-28T07:20:05;1.80;1.00
4637;DHT22;2331;48.806;9.140;2023-02-28T07:22:32;1.90;1.00
4637;DHT22;2331;48.806;9.140;2023-02-28T07:24:59;1.90;1.00
4637;DHT22;2331;48.806;9.140;2023-02-28T07:27:25;1.90;1.00
4637;DHT22;2331;48.806;9.140;2023-02-28T07:29:52;1.90;1.00
4637;DHT22;2331;48.806;9.140;2023-02-28T07:32:21;2.00;1.00
4637;DHT22;2331;48.806;9.140;2023-02-28T07:34:48;2.00;1.00
4637;DHT22;2331;48.806;9.140;2023-02-28T07:37:15;2.00;1.00
4637;DHT22;2331;48.806;9.140;2023-02-28T07:39:41;2.00;1.00
4637;DHT22;2331;48.806;9.140;2023-02-28T07:42:08;2.10;1.00
4637;DHT22;2331;48.806;9.140;2023-02-28T07:44:37;2.10;1.00
4637;DHT22;2331;48.806;9.140;2023-02-28T07:47:06;2.10;1.00
4637;DHT22;2331;48.806;9.140;2023-02-28T07:49:35;2.10;1.00
4637;DHT22;2331;48.806;9.140;2023-02-28T07:52:02;2.10;1.00
4637;DHT22;2331;48.806;9.140;2023-02-28T07:54:29;2.20;1.00
4637;DHT22;2331;48.806;9.140;2023-02-28T07:56:55;2.10;1.00
4637;DHT22;2331;48.806;9.140;2023-02-28T07:59:22;2.10;1.00
4637;DHT22;2331;48.806;9.140;2023-02-28T08:01:49;2.10;1.00
4637;DHT22;2331;48.806;9.140;2023-02-28T08:04:16;2.00;1.00
4637;DHT22;2331;48.806;9.140;2023-02-28T08:06:45;2.10;1.00
4637;DHT22;2331;48.806;9.140;2023-02-28T08:09:13;2.00;1.00
4637;DHT22;2331;48.806;9.140;2023-02-28T08:11:40;2.00;1.00
4637;DHT22;2331;48.806;9.140;2023-02-28T08:14:06;2.10;1.00
4637;DHT22;2331;48.806;9.140;2023-02-28T08:16:33;2.10;1.00
4637;DHT22;2331;48.806;9.140;2023-02-28T08:19:00;2.10;1.00
4637;DHT22;2331;48.806;9.140;2023-02-28T08:21:27;2.10;1.00
4637;DHT22;2331;48.806;9.140;2023-02-28T08:23:55;2.20;1.00
4637;DHT22;2331;48.806;9.140;2023-02-28T08:26:22;2.20;1.00
4637;DHT22;2331;48.806;9.140;2023-02-28T08:28:49;2.20;1.00
4637;DHT22;2331;48.806;9.140;2023-02-28T08:31:16;2.20;1.00
4637;DHT22;2331;48.806;9.140;2023-02-28T08:33:43;2.20;1.00
4637;DHT22;2331;48.806;9.140;2023-02-28T08:36:11;2.20;1.00
4637;DHT22;2331;48.806;9.140;2023-02-28T08:38:38;2.30;1.00
4637;DHT22;2331;48.806;9.140;2023-02-28T08:41:09;2.40;1.00
4637;DHT22;2331;48.806;9.140;2023-02-28T08:43:37;2.40;1.00
4637;DHT22;2331;48.806;9.140;2023-02-28T08:46:04;2.30;1.00
4637;DHT22;2331;48.806;9.140;2023-02-28T08:48:33;2.40;1.00
4637;DHT22;2331;48.806;9.140;2023-02-28T08:51:01;2.30;1.00
4637;DHT22;2331;48.806;9.140;2023-02-28T08:53:28;2.30;1.00
4637;DHT22;2331;48.806;9.140;2023-02-28T08:55:56;2.40;1.00
4637;DHT22;2331;48.806;9.140;2023-02-28T08:58:25;2.40;1.00
4637;DHT22;2331;48.806;9.140;2023-02-28T09:00:52;2.40;1.00
4637;DHT22;2331;48.806;9.140;2023-02-28T09:03:20;2.40;1.00
4637;DHT22;2331;48.806;9.140;2023-02-28T09:05:57;2.50;1.00
4637;DHT22;2331;48.806;9.140;2023-02-28T09:08:26;2.60;1.00
4637;DHT22;2331;48.806;9.140;2023-02-28T09:10:53;2.60;1.00
4637;DHT22;2331;48.806;9.140;2023-02-28T09:13:23;2.70;1.00
4637;DHT22;2331;48.806;9.140;2023-02-28T09:15:52;2.80;1.00
4637;DHT22;2331;48.806;9.140;2023-02-28T09:18:20;2.80;1.00
4637;DHT22;2331;48.806;9.140;2023-02-28T09:20:46;2.80;1.00
4637;DHT22;2331;48.806;9.140;2023-02-28T09:23:13;2.80;1.00
4637;DHT22;2331;48.806;9.140;2023-02-28T09:25:46;2.90;1.00
4637;DHT22;2331;48.806;9.140;2023-02-28T09:28:13;2.90;1.00
4637;DHT22;2331;48.806;9.140;2023-02-28T09:30:42;3.00;1.00
4637;DHT22;2331;48.806;9.140;2023-02-28T09:33:11;3.00;1.00
4637;DHT22;2331;48.806;9.140;2023-02-28T09:35:38;3.00;1.00
4637;DHT22;2331;48.806;9.140;2023-02-28T09:38:05;3.00;1.00
4637;DHT22;2331;48.806;9.140;2023-02-28T09:40:36;3.00;1.00
4637;DHT22;2331;48.806;9.140;2023-02-28T09:43:03;3.10;1.00
4637;DHT22;2331;48.806;9.140;2023-02-28T09:45:33;3.20;1.00
4637;DHT22;2331;48.806;9.140;2023-02-28T09:48:03;3.20;1.00
4637;DHT22;2331;48.806;9.140;2023-02-28T09:50:34;3.10;1.00
4637;DHT22;2331;48.806;9.140;2023-02-28T09:53:05;3.10;1.00
4637;DHT22;2331;48.806;9.140;2023-02-28T09:55:35;3.10;1.00
4637;DHT22;2331;48.806;9.140;2023-02-28T09:58:03;3.20;1.00
4637;DHT22;2331;48.806;9.140;2023-02-28T10:00:33;3.10;1.00
4637;DHT22;2331;48.806;9.140;2023-02-28T10:03:11;3.30;1.00
4637;DHT22;2331;48.806;9.140;2023-02-28T10:05:51;3.30;1.00
4637;DHT22;2331;48.806;9.140;2023-02-28T10:08:22;3.40;1.00
4637;DHT22;2331;48.806;9.140;2023-02-28T10:10:53;3.50;1.00
4637;DHT22;2331;48.806;9.140;2023-02-28T10:13:26;3.60;1.00
4637;DHT22;2331;48.806;9.140;2023-02-28T10:15:56;3.60;1.00
4637;DHT22;2331;48.806;9.140;2023-02-28T10:18:28;3.70;1.00
4637;DHT22;2331;48.806;9.140;2023-02-28T10:20:58;3.70;1.00
4637;DHT22;2331;48.806;9.140;2023-02-28T10:23:28;3.60;1.00
4637;DHT22;2331;48.806;9.140;2023-02-28T10:26:00;3.70;1.00
4637;DHT22;2331;48.806;9.140;2023-02-28T10:28:29;3.80;1.00
4637;DHT22;2331;48.806;9.140;2023-02-28T10:30:57;3.80;1.00
4637;DHT22;2331;48.806;9.140;2023-02-28T10:33:29;3.80;1.00
4637;DHT22;2331;48.806;9.140;2023-02-28T10:35:58;3.80;1.00
4637;DHT22;2331;48.806;9.140;2023-02-28T10:38:26;3.80;1.00
4637;DHT22;2331;48.806;9.140;2023-02-28T10:41:04;3.90;1.00
4637;DHT22;2331;48.806;9.140;2023-02-28T10:43:31;4.00;1.00
4637;DHT22;2331;48.806;9.140;2023-02-28T10:46:01;4.10;1.00
4637;DHT22;2331;48.806;9.140;2023-02-28T10:48:34;4.20;1.00
4637;DHT22;2331;48.806;9.140;2023-02-28T10:51:05;4.20;1.00
4637;DHT22;2331;48.806;9.140;2023-02-28T10:53:35;4.30;1.00
4637;DHT22;2331;48.806;9.140;2023-02-28T10:56:05;4.30;1.00
4637;DHT22;2331;48.806;9.140;2023-02-28T10:58:50;4.40;1.00
4637;DHT22;2331;48.806;9.140;2023-02-28T11:01:20;4.40;1.00
4637;DHT22;2331;48.806;9.140;2023-02-28T11:03:47;4.60;1.00
4637;DHT22;2331;48.806;9.140;2023-02-28T11:06:19;4.70;1.00
4637;DHT22;2331;48.806;9.140;2023-02-28T11:08:49;4.70;1.00
4637;DHT22;2331;48.806;9.140;2023-02-28T11:11:16;4.90;1.00
4637;DHT22;2331;48.806;9.140;2023-02-28T11:13:45;4.90;1.00
4637;DHT22;2331;48.806;9.140;2023-02-28T11:16:14;5.00;1.00
4637;DHT22;2331;48.806;9.140;2023-02-28T11:18:44;5.10;1.00
4637;DHT22;2331;48.806;9.140;2023-02-28T11:21:20;5.30;1.00
4637;DHT22;2331;48.806;9.140;2023-02-28T11:23:49;5.40;1.00
4637;DHT22;2331;48.806;9.140;2023-02-28T11:26:35;5.40;1.00
4637;DHT22;2331;48.806;9.140;2023-02-28T11:29:10;5.40;1.00
4637;DHT22;2331;48.806;9.140;2023-02-28T11:31:37;5.50;1.00
4637;DHT22;2331;48.806;9.140;2023-02-28T11:34:23;5.90;1.00
4637;DHT22;2331;48.806;9.140;2023-02-28T11:36:53;6.30;1.00
4637;DHT22;2331;48.806;9.140;2023-02-28T11:39:20;6.50;1.00
4637;DHT22;2331;48.806;9.140;2023-02-28T11:42:02;6.50;1.00
4637;DHT22;2331;48.806;9.140;2023-02-28T11:44:43;6.50;1.00
4637;DHT22;2331;48.806;9.140;2023-02-28T11:47:17;6.60;1.00
4637;DHT22;2331;48.806;9.140;2023-02-28T11:50:03;6.70;1.00
4637;DHT22;2331;48.806;9.140;2023-02-28T11:52:38;6.70;1.00
4637;DHT22;2331;48.806;9.140;2023-02-28T11:55:14;6.70;1.00
4637;DHT22;2331;48.806;9.140;2023-02-28T11:57:55;6.80;1.00
4637;DHT22;2331;48.806;9.140;2023-02-28T12:00:40;6.90;1.00
4637;DHT22;2331;48.806;9.140;2023-02-28T12:03:22;6.90;1.00
4637;DHT22;2331;48.806;9.140;2023-02-28T12:06:00;7.00;1.00
4637;DHT22;2331;48.806;9.140;2023-02-28T12:08:45;7.00;1.00
4637;DHT22;2331;48.806;9.140;2023-02-28T12:11:20;7.10;1.00
4637;DHT22;2331;48.806;9.140;2023-02-28T12:13:57;7.20;1.00
4637;DHT22;2331;48.806;9.140;2023-02-28T12:16:48;7.30;1.00
4637;DHT22;2331;48.806;9.140;2023-02-28T12:19:21;7.30;1.00
4637;DHT22;2331;48.806;9.140;2023-02-28T12:22:10;7.40;1.00
4637;DHT22;2331;48.806;9.140;2023-02-28T12:24:49;7.50;1.00
4637;DHT22;2331;48.806;9.140;2023-02-28T12:27:21;7.60;1.00
4637;DHT22;2331;48.806;9.140;2023-02-28T12:29:52;7.70;1.00
4637;DHT22;2331;48.806;9.140;2023-02-28T12:32:25;7.80;1.00
4637;DHT22;2331;48.806;9.140;2023-02-28T12:35:02;7.80;1.00
4637;DHT22;2331;48.806;9.140;2023-02-28T12:37:36;7.80;1.00
4637;DHT22;2331;48.806;9.140;2023-02-28T12:40:11;7.90;1.00
4637;DHT22;2331;48.806;9.140;2023-02-28T12:42:41;7.90;1.00
4637;DHT22;2331;48.806;9.140;2023-02-28T12:45:12;8.00;1.00
4637;DHT22;2331;48.806;9.140;2023-02-28T12:47:42;8.10;1.00
4637;DHT22;2331;48.806;9.140;2023-02-28T12:50:11;8.10;1.00
4637;DHT22;2331;48.806;9.140;2023-02-28T12:52:43;8.10;1.00
4637;DHT22;2331;48.806;9.140;2023-02-28T12:55:15;8.00;1.00
4637;DHT22;2331;48.806;9.140;2023-02-28T12:57:52;8.10;1.00
4637;DHT22;2331;48.806;9.140;2023-02-28T13:00:23;8.00;1.00
4637;DHT22;2331;48.806;9.140;2023-02-28T13:06:10;8.20;1.00
4637;DHT22;2331;48.806;9.140;2023-02-28T13:09:02;8.20;1.00
4637;DHT22;2331;48.806;9.140;2023-02-28T13:11:37;8.20;1.00
4637;DHT22;2331;48.806;9.140;2023-02-28T13:14:15;8.20;1.00
4637;DHT22;2331;48.806;9.140;2023-02-28T13:16:59;8.20;1.00
4637;DHT22;2331;48.806;9.140;2023-02-28T13:19:30;8.20;1.00
4637;DHT22;2331;48.806;9.140;2023-02-28T13:21:59;8.00;1.00
4637;DHT22;2331;48.806;9.140;2023-02-28T13:24:43;8.10;1.00
4637;DHT22;2331;48.806;9.140;2023-02-28T13:27:24;8.20;1.00
4637;DHT22;2331;48.806;9.140;2023-02-28T13:29:57;8.20;1.00
4637;DHT22;2331;48.806;9.140;2023-02-28T13:32:42;8.20;1.00
4637;DHT22;2331;48.806;9.140;2023-02-28T13:35:38;8.20;1.00
4637;DHT22;2331;48.806;9.140;2023-02-28T13:38:23;8.30;1.00
4637;DHT22;2331;48.806;9.140;2023-02-28T13:40:50;8.20;1.00
4637;DHT22;2331;48.806;9.140;2023-02-28T13:43:18;8.30;1.00
4637;DHT22;2331;48.806;9.140;2023-02-28T13:46:08;8.20;1.00
4637;DHT22;2331;48.806;9.140;2023-02-28T13:48:37;8.20;1.00
4637;DHT22;2331;48.806;9.140;2023-02-28T13:54:24;8.30;1.00
4637;DHT22;2331;48.806;9.140;2023-02-28T13:57:05;8.30;1.00
4637;DHT22;2331;48.806;9.140;2023-02-28T13:59:42;8.40;1.00
4637;DHT22;2331;48.806;9.140;2023-02-28T14:02:43;8.40;1.00
4637;DHT22;2331;48.806;9.140;2023-02-28T14:05:15;8.30;1.00
4637;DHT22;2331;48.806;9.140;2023-02-28T14:07:45;8.50;1.00
4637;DHT22;2331;48.806;9.140;2023-02-28T14:10:26;8.50;1.00
4637;DHT22;2331;48.806;9.140;2023-02-28T14:13:01;8.60;1.00
4637;DHT22;2331;48.806;9.140;2023-02-28T14:15:40;8.70;1.00
4637;DHT22;2331;48.806;9.140;2023-02-28T14:18:19;8.80;1.00
4637;DHT22;2331;48.806;9.140;2023-02-28T14:20:47;8.80;1.00
4637;DHT22;2331;48.806;9.140;2023-02-28T14:23:26;8.80;1.00
4637;DHT22;2331;48.806;9.140;2023-02-28T14:26:02;8.80;1.00
4637;DHT22;2331;48.806;9.140;2023-02-28T14:28:46;8.90;1.00
4637;DHT22;2331;48.806;9.140;2023-02-28T14:31:23;8.90;1.00
4637;DHT22;2331;48.806;9.140;2023-02-28T14:34:10;8.90;1.00
4637;DHT22;2331;48.806;9.140;2023-02-28T14:36:41;8.90;1.00
4637;DHT22;2331;48.806;9.140;2023-02-28T14:39:13;8.70;1.00
4637;DHT22;2331;48.806;9.140;2023-02-28T14:41:42;8.70;1.00
4637;DHT22;2331;48.806;9.140;2023-02-28T14:44:17;8.50;1.00
4637;DHT22;2331;48.806;9.140;2023-02-28T14:46:47;8.50;1.00
4637;DHT22;2331;48.806;9.140;2023-02-28T14:49:18;8.50;1.00
4637;DHT22;2331;48.806;9.140;2023-02-28T14:51:47;8.50;1.00
4637;DHT22;2331;48.806;9.140;2023-02-28T14:54:17;8.60;1.00
4637;DHT22;2331;48.806;9.140;2023-02-28T14:56:50;8.40;1.00
4637;DHT22;2331;48.806;9.140;2023-02-28T14:59:25;8.40;1.00
4637;DHT22;2331;48.806;9.140;2023-02-28T15:02:17;8.40;1.00
4637;DHT22;2331;48.806;9.140;2023-02-28T15:04:52;8.30;1.00
4637;DHT22;2331;48.806;9.140;2023-02-28T15:07:19;8.30;1.00
4637;DHT22;2331;48.806;9.140;2023-02-28T15:10:07;8.30;1.00
4637;DHT22;2331;48.806;9.140;2023-02-28T15:12:35;8.30;1.00
4637;DHT22;2331;48.806;9.140;2023-02-28T15:15:02;8.40;1.00
4637;DHT22;2331;48.806;9.140;2023-02-28T15:17:30;8.20;1.00
4637;DHT22;2331;48.806;9.140;2023-02-28T15:19:57;8.10;1.00
4637;DHT22;2331;48.806;9.140;2023-02-28T15:22:28;8.20;1.00
4637;DHT22;2331;48.806;9.140;2023-02-28T15:24:58;8.20;1.00
4637;DHT22;2331;48.806;9.140;2023-02-28T15:27:27;8.10;1.00
4637;DHT22;2331;48.806;9.140;2023-02-28T15:29:58;8.10;1.00
4637;DHT22;2331;48.806;9.140;2023-02-28T15:32:28;8.00;1.00
4637;DHT22;2331;48.806;9.140;2023-02-28T15:34:57;8.10;1.00
4637;DHT22;2331;48.806;9.140;2023-02-28T15:37:38;8.10;1.00
4637;DHT22;2331;48.806;9.140;2023-02-28T15:40:13;8.10;1.00
4637;DHT22;2331;48.806;9.140;2023-02-28T15:42:40;8.10;1.00
4637;DHT22;2331;48.806;9.140;2023-02-28T15:45:27;8.20;1.00
4637;DHT22;2331;48.806;9.140;2023-02-28T15:47:54;8.10;1.00
4637;DHT22;2331;48.806;9.140;2023-02-28T15:50:22;8.10;1.00
4637;DHT22;2331;48.806;9.140;2023-02-28T15:52:50;8.00;1.00
4637;DHT22;2331;48.806;9.140;2023-02-28T15:55:22;8.00;1.00
4637;DHT22;2331;48.806;9.140;2023-02-28T15:57:52;8.00;1.00
4637;DHT22;2331;48.806;9.140;2023-02-28T16:00:21;7.90;1.00
4637;DHT22;2331;48.806;9.140;2023-02-28T16:02:49;7.90;1.00
4637;DHT22;2331;48.806;9.140;2023-02-28T16:05:24;7.90;1.00
4637;DHT22;2331;48.806;9.140;2023-02-28T16:07:56;7.90;1.00
4637;DHT22;2331;48.806;9.140;2023-02-28T16:10:25;7.90;1.00
4637;DHT22;2331;48.806;9.140;2023-02-28T16:12:54;7.90;1.00
4637;DHT22;2331;48.806;9.140;2023-02-28T16:15:23;7.90;1.00
4637;DHT22;2331;48.806;9.140;2023-02-28T16:17:50;7.90;1.00
4637;DHT22;2331;48.806;9.140;2023-02-28T16:20:19;7.90;1.00
4637;DHT22;2331;48.806;9.140;2023-02-28T16:22:49;7.80;1.00
4637;DHT22;2331;48.806;9.140;2023-02-28T16:25:17;7.80;1.00
4637;DHT22;2331;48.806;9.140;2023-02-28T16:27:48;7.70;1.00
4637;DHT22;2331;48.806;9.140;2023-02-28T16:30:19;7.60;1.00
4637;DHT22;2331;48.806;9.140;2023-02-28T16:32:48;7.60;1.00
4637;DHT22;2331;48.806;9.140;2023-02-28T16:35:16;7.60;1.00
4637;DHT22;2331;48.806;9.140;2023-02-28T16:37:43;7.60;1.00
4637;DHT22;2331;48.806;9.140;2023-02-28T16:40:15;7.60;1.00
4637;DHT22;2331;48.806;9.140;2023-02-28T16:42:43;7.60;1.00
4637;DHT22;2331;48.806;9.140;2023-02-28T16:45:18;7.60;1.00
4637;DHT22;2331;48.806;9.140;2023-02-28T16:47:46;7.50;1.00
4637;DHT22;2331;48.806;9.140;2023-02-28T16:50:16;7.50;1.00
4637;DHT22;2331;48.806;9.140;2023-02-28T16:52:42;7.50;1.00
4637;DHT22;2331;48.806;9.140;2023-02-28T16:55:10;7.40;1.00
4637;DHT22;2331;48.806;9.140;2023-02-28T16:57:38;7.40;1.00
4637;DHT22;2331;48.806;9.140;2023-02-28T17:00:07;7.30;1.00
4637;DHT22;2331;48.806;9.140;2023-02-28T17:02:34;7.30;1.00
4637;DHT22;2331;48.806;9.140;2023-02-28T17:05:01;7.20;1.00
4637;DHT22;2331;48.806;9.140;2023-02-28T17:07:29;7.10;1.00